Time;durP1;ratioP1;P1;durP2;ratioP2;P2;SDS_P1;SDS_P2;PMS_P1;PMS_P2;Temp;Humidity;BMP_temperature;BMP_pressure;BME280_temperature;BME280_humidity;BME280_pressure;Samples;Min_cycle;Max_cycle;Signal;HPM_P1;HPM_P2
2023/12/13 00:01:50;;;;;;;48.90;27.50;;;;;;;3.18;83.42;100423.08;104859;1256;61167;-67
2023/12/13 00:04:16;;;;;;;50.80;28.80;;;;;;;3.21;83.45;100423.94;104764;1256;138526;-68
2023/12/13 00:06:43;;;;;;;46.20;28.50;;;;;;;3.25;83.60;100425.69;104905;1256;65406;-67
2023/12/13 00:09:10;;;;;;;46.30;29.20;;;;;;;3.26;83.61;100424.20;104990;1256;139008;-68
2023/12/13 00:11:37;;;;;;;49.30;28.70;;;;;;;3.29;83.60;100425.23;104967;1256;61341;-68
2023/12/13 00:14:03;;;;;;;46.80;28.40;;;;;;;3.30;83.49;100427.52;104981;1256;61454;-67
2023/12/13 00:16:30;;;;;;;48.80;29.20;;;;;;;3.31;83.60;100423.73;104775;1256;138555;-66
2023/12/13 00:18:56;;;;;;;49.00;29.30;;;;;;;3.31;83.45;100424.61;104916;1258;66547;-67
2023/12/13 00:21:23;;;;;;;49.60;29.10;;;;;;;3.31;83.44;100426.69;104774;1259;138180;-67
2023/12/13 00:23:50;;;;;;;60.70;32.30;;;;;;;3.33;83.72;100429.04;104931;1256;60390;-57
2023/12/13 00:26:18;;;;;;;56.20;31.30;;;;;;;3.34;83.55;100428.90;105030;1259;61795;-60
2023/12/13 00:28:45;;;;;;;62.60;33.30;;;;;;;3.33;83.61;100434.42;108995;1255;138100;-66
2023/12/13 00:31:12;;;;;;;60.40;33.00;;;;;;;3.35;83.55;100439.35;109068;1255;66322;-67
2023/12/13 00:33:38;;;;;;;58.80;34.70;;;;;;;3.34;83.49;100440.69;107393;1259;137787;-67
2023/12/13 00:36:06;;;;;;;62.50;34.50;;;;;;;3.32;83.44;100442.70;104837;1261;61319;-68
2023/12/13 00:38:33;;;;;;;52.60;32.80;;;;;;;3.31;83.51;100442.48;109031;1256;138464;-62
2023/12/13 00:41:00;;;;;;;55.30;33.50;;;;;;;3.31;83.42;100440.40;109090;1256;74232;-56
2023/12/13 00:43:27;;;;;;;63.10;35.10;;;;;;;3.31;83.41;100436.25;109103;1254;67517;-67
2023/12/13 00:45:53;;;;;;;62.10;33.60;;;;;;;3.31;83.43;100438.50;108964;1256;138940;-67
2023/12/13 00:48:20;;;;;;;60.30;34.90;;;;;;;3.33;83.46;100435.09;109089;1255;59229;-66
2023/12/13 00:50:46;;;;;;;56.30;33.40;;;;;;;3.37;83.51;100433.38;108964;1256;141163;-66
2023/12/13 00:53:13;;;;;;;54.80;31.90;;;;;;;3.37;83.37;100431.30;109059;1260;75117;-66
2023/12/13 00:55:40;;;;;;;44.20;29.70;;;;;;;3.35;83.22;100428.42;108183;1255;66480;-66
2023/12/13 00:58:06;;;;;;;50.70;28.90;;;;;;;3.29;83.14;100430.09;104766;1256;138368;-67
2023/12/13 01:00:33;;;;;;;49.80;28.90;;;;;;;3.25;82.97;100431.80;104903;1259;61264;-66
2023/12/13 01:03:00;;;;;;;49.30;28.60;;;;;;;3.24;83.00;100431.36;104999;1259;138558;-67
2023/12/13 01:05:27;;;;;;;46.10;27.70;;;;;;;3.25;83.21;100427.61;104976;1255;73574;-66
2023/12/13 01:07:53;;;;;;;45.20;26.40;;;;;;;3.26;83.38;100427.66;104898;1259;66844;-67
2023/12/13 01:10:20;;;;;;;42.50;25.40;;;;;;;3.28;83.25;100418.54;104964;1256;137649;-67
2023/12/13 01:12:46;;;;;;;47.00;27.70;;;;;;;3.22;83.13;100418.95;104977;1256;61360;-66
2023/12/13 01:15:13;;;;;;;45.50;28.20;;;;;;;3.16;83.03;100414.32;104879;1256;138496;-66
2023/12/13 01:17:40;;;;;;;51.50;28.50;;;;;;;3.11;83.05;100410.95;105110;1255;75514;-67
2023/12/13 01:20:09;;;;;;;53.80;29.00;;;;;;;3.04;83.03;100404.74;104988;1258;67546;-68
2023/12/13 01:22:36;;;;;;;49.50;28.50;;;;;;;2.98;83.06;100405.64;108884;1256;139050;-67
2023/12/13 01:25:02;;;;;;;47.40;28.10;;;;;;;2.90;82.97;100400.59;108569;1256;59356;-67
2023/12/13 01:27:30;;;;;;;49.00;28.50;;;;;;;2.84;82.92;100400.11;104827;1261;138299;-66
2023/12/13 01:29:56;;;;;;;48.90;28.20;;;;;;;2.82;83.29;100402.41;105001;1258;75651;-66
2023/12/13 01:32:23;;;;;;;50.90;29.90;;;;;;;2.84;83.41;100409.27;104917;1261;66332;-65
2023/12/13 01:34:50;;;;;;;56.70;31.30;;;;;;;2.88;83.62;100412.75;104993;1260;139124;-67
2023/12/13 01:37:16;;;;;;;60.10;32.90;;;;;;;2.91;83.68;100410.70;104803;1259;61352;-67
2023/12/13 01:39:43;;;;;;;62.20;33.90;;;;;;;2.96;83.71;100410.89;104754;1261;138487;-57
2023/12/13 01:42:10;;;;;;;65.60;33.60;;;;;;;3.00;83.74;100400.17;104887;1256;75664;-67
2023/12/13 01:44:38;;;;;;;51.40;30.40;;;;;;;3.01;83.63;100399.02;104805;1256;141214;-67
2023/12/13 01:47:04;;;;;;;52.00;29.20;;;;;;;2.99;83.58;100402.06;104849;1256;73300;-68
2023/12/13 01:49:31;;;;;;;47.80;28.70;;;;;;;3.00;83.65;100403.14;104933;1260;61365;-66
2023/12/13 01:51:58;;;;;;;51.80;29.30;;;;;;;3.02;83.49;100395.80;104768;1260;138741;-67
2023/12/13 01:54:24;;;;;;;49.50;28.70;;;;;;;3.01;83.48;100390.02;104877;1256;75159;-68
2023/12/13 01:56:52;;;;;;;46.40;26.80;;;;;;;2.97;83.33;100388.08;104831;1255;137853;-56
2023/12/13 01:59:18;;;;;;;44.20;27.40;;;;;;;2.88;83.22;100392.70;104967;1257;73119;-67
2023/12/13 02:01:45;;;;;;;42.90;26.20;;;;;;;2.84;83.39;100394.89;104992;1258;61222;-68
2023/12/13 02:04:13;;;;;;;45.60;27.90;;;;;;;2.85;83.62;100395.27;104784;1262;138548;-70
2023/12/13 02:06:41;;;;;;;44.20;26.20;;;;;;;2.87;83.69;100390.23;104876;1257;75211;-56
2023/12/13 02:09:08;;;;;;;43.70;26.60;;;;;;;2.87;83.57;100390.55;104814;1258;139312;-56
2023/12/13 02:11:35;;;;;;;41.80;23.80;;;;;;;2.83;83.39;100385.13;104934;1256;72282;-57
2023/12/13 02:14:02;;;;;;;51.40;28.30;;;;;;;2.79;83.44;100380.29;104904;1259;61249;-56
2023/12/13 02:16:29;;;;;;;47.80;26.30;;;;;;;2.77;83.56;100373.21;105006;1258;138318;-56
2023/12/13 02:18:56;;;;;;;52.10;27.10;;;;;;;2.74;83.52;100373.27;105037;1260;75650;-56
2023/12/13 02:21:24;;;;;;;45.90;27.20;;;;;;;2.72;83.54;100371.42;104832;1256;138258;-56
2023/12/13 02:23:51;;;;;;;49.70;27.20;;;;;;;2.71;83.46;100369.52;104880;1259;71971;-56
2023/12/13 02:26:18;;;;;;;48.00;25.90;;;;;;;2.68;83.41;100364.98;104904;1258;61283;-57
2023/12/13 02:28:45;;;;;;;39.60;23.30;;;;;;;2.66;83.46;100362.80;104885;1256;138615;-57
2023/12/13 02:31:13;;;;;;;31.80;20.00;;;;;;;2.62;83.50;100366.94;104881;1261;75417;-57
2023/12/13 02:33:40;;;;;;;28.30;17.90;;;;;;;2.61;83.55;100370.36;108931;1255;138973;-56
2023/12/13 02:36:08;;;;;;;37.00;18.70;;;;;;;2.62;83.55;100376.14;109040;1256;72668;-57
2023/12/13 02:38:35;;;;;;;31.30;19.30;;;;;;;2.67;83.74;100382.79;108968;1256;139140;-57
2023/12/13 02:41:01;;;;;;;32.40;19.40;;;;;;;2.71;83.67;100380.58;107233;1257;61351;-56
2023/12/13 02:43:30;;;;;;;36.70;18.80;;;;;;;2.77;83.80;100382.23;104902;1258;75600;-58
2023/12/13 02:45:57;;;;;;;34.80;20.20;;;;;;;2.80;83.68;100384.67;108927;1256;138501;-56
2023/12/13 02:48:24;;;;;;;48.40;24.50;;;;;;;2.83;83.69;100385.46;109112;1255;73313;-56
2023/12/13 02:50:52;;;;;;;40.30;24.00;;;;;;;2.83;83.59;100385.81;108939;1256;137760;-56
2023/12/13 02:53:19;;;;;;;43.90;24.70;;;;;;;2.84;83.58;100383.48;109104;1256;59240;-56
2023/12/13 02:55:46;;;;;;;43.80;25.40;;;;;;;2.83;83.30;100375.77;109089;1256;74373;-57
2023/12/13 02:58:13;;;;;;;37.60;22.70;;;;;;;2.81;83.37;100375.86;105826;1259;137848;-56
2023/12/13 03:00:40;;;;;;;43.90;23.50;;;;;;;2.81;83.41;100382.95;104830;1257;73691;-55
2023/12/13 03:03:08;;;;;;;39.70;23.70;;;;;;;2.81;83.48;100389.58;104921;1259;138612;-55
2023/12/13 03:05:34;;;;;;;42.50;24.20;;;;;;;2.83;83.48;100391.70;109024;1256;61499;-57
2023/12/13 03:08:01;;;;;;;49.10;25.70;;;;;;;2.81;83.46;100391.64;109069;1255;75619;-57
2023/12/13 03:10:28;;;;;;;38.80;24.10;;;;;;;2.82;83.60;100388.05;108942;1255;139017;-57
2023/12/13 03:12:55;;;;;;;39.60;24.90;;;;;;;2.84;83.57;100386.08;109029;1256;71202;-68
2023/12/13 03:15:21;;;;;;;40.50;23.20;;;;;;;2.87;83.61;100389.33;109017;1255;138846;-68
2023/12/13 03:17:48;;;;;;;41.50;23.00;;;;;;;2.88;83.68;100395.29;109077;1255;59127;-67
2023/12/13 03:20:15;;;;;;;39.70;23.50;;;;;;;2.91;83.47;100392.67;109083;1256;74698;-67
2023/12/13 03:22:42;;;;;;;40.10;23.20;;;;;;;2.90;83.40;100386.73;105198;1256;138924;-67
2023/12/13 03:25:08;;;;;;;45.00;24.10;;;;;;;2.89;83.45;100390.00;104870;1256;73899;-66
2023/12/13 03:27:35;;;;;;;34.70;22.20;;;;;;;2.90;83.33;100400.20;104800;1261;138405;-69
2023/12/13 03:30:04;;;;;;;40.40;23.10;;;;;;;2.89;83.52;100403.14;104909;1260;61349;-66
2023/12/13 03:32:30;;;;;;;39.30;21.90;;;;;;;2.89;83.41;100400.69;107988;1255;75741;-67
2023/12/13 03:34:57;;;;;;;41.20;22.00;;;;;;;2.90;83.64;100387.95;104720;1258;138090;-68
2023/12/13 03:37:24;;;;;;;34.20;20.90;;;;;;;2.90;83.38;100378.91;104941;1260;73720;-67
2023/12/13 03:39:50;;;;;;;33.50;19.30;;;;;;;2.89;83.42;100379.55;104679;1261;138616;-67
2023/12/13 03:42:17;;;;;;;37.40;20.60;;;;;;;2.87;83.44;100384.80;105014;1256;61289;-67
2023/12/13 03:44:44;;;;;;;32.00;20.00;;;;;;;2.85;83.30;100395.13;104856;1259;137913;-56
2023/12/13 03:47:10;;;;;;;35.20;19.50;;;;;;;2.84;83.49;100399.59;105043;1260;68027;-68
2023/12/13 03:49:37;;;;;;;36.60;20.70;;;;;;;2.83;83.56;100398.32;105036;1260;72952;-56
2023/12/13 03:52:04;;;;;;;35.40;20.70;;;;;;;2.80;83.46;100393.50;104922;1259;139083;-58
2023/12/13 03:54:31;;;;;;;36.60;21.80;;;;;;;2.79;83.63;100388.93;105015;1260;61453;-67
2023/12/13 03:56:57;;;;;;;39.20;21.10;;;;;;;2.81;83.53;100382.80;104976;1256;139664;-68
2023/12/13 03:59:24;;;;;;;38.00;20.70;;;;;;;2.86;83.77;100386.35;104824;1261;65449;-68
2023/12/13 04:01:51;;;;;;;35.20;19.80;;;;;;;2.88;83.65;100389.38;104881;1261;73003;-67
2023/12/13 04:04:17;;;;;;;38.60;20.50;;;;;;;2.86;83.48;100392.56;104868;1256;138537;-66
2023/12/13 04:06:44;;;;;;;37.20;21.60;;;;;;;2.84;83.53;100393.89;105014;1258;61257;-58
2023/12/13 04:09:10;;;;;;;35.20;20.50;;;;;;;2.82;83.33;100391.53;104794;1259;138758;-57
2023/12/13 04:11:37;;;;;;;39.90;21.60;;;;;;;2.78;83.43;100382.48;105014;1258;66588;-58
2023/12/13 04:14:04;;;;;;;37.10;20.50;;;;;;;2.78;83.38;100383.34;104903;1256;73204;-56
2023/12/13 04:16:32;;;;;;;40.10;20.90;;;;;;;2.74;83.20;100381.59;104702;1257;138588;-57
2023/12/13 04:18:59;;;;;;;36.10;21.30;;;;;;;2.72;83.31;100376.13;105095;1257;61237;-57
2023/12/13 04:21:26;;;;;;;36.00;21.00;;;;;;;2.72;83.32;100374.19;105001;1256;138850;-58
2023/12/13 04:23:52;;;;;;;36.80;21.40;;;;;;;2.69;83.34;100373.55;109048;1256;66633;-58
2023/12/13 04:26:19;;;;;;;39.50;21.20;;;;;;;2.71;83.48;100379.54;108877;1256;73701;-56
2023/12/13 04:28:46;;;;;;;33.10;19.90;;;;;;;2.72;83.44;100379.55;108930;1256;137781;-58
2023/12/13 04:31:12;;;;;;;33.40;19.40;;;;;;;2.73;83.53;100376.88;109055;1256;59467;-58
2023/12/13 04:33:39;;;;;;;33.50;18.30;;;;;;;2.74;83.45;100368.56;109017;1257;138849;-57
2023/12/13 04:36:06;;;;;;;30.40;19.10;;;;;;;2.77;83.43;100366.84;109048;1256;67801;-57
2023/12/13 04:38:34;;;;;;;30.80;18.70;;;;;;;2.82;83.48;100365.18;108887;1255;138879;-57
2023/12/13 04:41:01;;;;;;;34.00;20.00;;;;;;;2.88;83.42;100370.64;109070;1256;59603;-57
2023/12/13 04:43:27;;;;;;;30.50;18.10;;;;;;;2.89;83.33;100373.32;105826;1259;61167;-56
2023/12/13 04:45:54;;;;;;;28.30;17.70;;;;;;;2.90;83.27;100374.77;104790;1259;138593;-56
2023/12/13 04:48:20;;;;;;;31.50;18.50;;;;;;;2.89;83.14;100372.47;104964;1257;65478;-57
2023/12/13 04:50:47;;;;;;;31.00;17.60;;;;;;;2.90;83.13;100371.99;104832;1261;138527;-55
2023/12/13 04:53:14;;;;;;;31.40;17.00;;;;;;;2.93;83.19;100369.86;104834;1258;61311;-57
2023/12/13 04:55:41;;;;;;;28.70;18.10;;;;;;;2.95;83.21;100373.05;104920;1260;61217;-55
2023/12/13 04:58:07;;;;;;;30.10;17.90;;;;;;;2.97;83.37;100375.94;104945;1260;138912;-55
2023/12/13 05:00:34;;;;;;;30.60;18.90;;;;;;;2.98;83.35;100372.55;105003;1257;66316;-56
2023/12/13 05:03:00;;;;;;;26.90;17.00;;;;;;;3.03;83.50;100370.17;104901;1256;138126;-56
2023/12/13 05:05:28;;;;;;;30.40;16.50;;;;;;;3.02;83.34;100367.05;105127;1260;61370;-56
2023/12/13 05:07:54;;;;;;;28.70;17.50;;;;;;;3.00;83.05;100364.83;104818;1262;61348;-55
2023/12/13 05:10:21;;;;;;;27.70;16.60;;;;;;;2.95;83.07;100365.10;104920;1261;137985;-56
2023/12/13 05:12:47;;;;;;;28.30;15.70;;;;;;;2.92;83.15;100368.25;104992;1265;66121;-57
2023/12/13 05:15:14;;;;;;;24.60;15.50;;;;;;;2.89;83.07;100371.56;104987;1255;138563;-56
2023/12/13 05:17:41;;;;;;;30.60;17.00;;;;;;;2.85;82.95;100368.96;104948;1260;61366;-56
2023/12/13 05:20:09;;;;;;;26.30;15.50;;;;;;;2.84;83.02;100363.02;104959;1256;61257;-56
2023/12/13 05:22:36;;;;;;;26.40;15.60;;;;;;;2.81;82.96;100364.23;108956;1256;139009;-56
2023/12/13 05:25:03;;;;;;;24.60;14.80;;;;;;;2.77;83.02;100362.48;109109;1254;65151;-57
2023/12/13 05:27:30;;;;;;;27.30;14.70;;;;;;;2.77;83.07;100365.08;109001;1256;138585;-57
2023/12/13 05:29:57;;;;;;;24.20;14.50;;;;;;;2.79;83.23;100367.81;105395;1260;61203;-56
2023/12/13 05:32:24;;;;;;;23.70;14.30;;;;;;;2.84;83.16;100367.34;105030;1261;61309;-57
2023/12/13 05:34:50;;;;;;;26.40;14.10;;;;;;;2.86;83.17;100368.16;104757;1255;138961;-57
2023/12/13 05:37:17;;;;;;;22.60;13.40;;;;;;;2.86;83.14;100367.80;104950;1260;66057;-57
2023/12/13 05:39:44;;;;;;;21.10;13.20;;;;;;;2.89;83.15;100367.27;104884;1259;138519;-60
2023/12/13 05:42:10;;;;;;;24.80;13.30;;;;;;;2.91;83.14;100365.46;105064;1260;61245;-60
2023/12/13 05:44:37;;;;;;;21.30;13.20;;;;;;;2.94;83.10;100357.96;104815;1262;137902;-59
2023/12/13 05:47:04;;;;;;;25.00;13.10;;;;;;;2.96;83.13;100360.65;105147;1261;73352;-59
2023/12/13 05:49:30;;;;;;;23.40;14.10;;;;;;;2.98;83.08;100360.56;105011;1257;66969;-58
2023/12/13 05:51:57;;;;;;;18.90;12.90;;;;;;;2.97;83.06;100360.72;104796;1260;138294;-61
2023/12/13 05:54:24;;;;;;;29.80;14.80;;;;;;;2.96;83.07;100361.84;104951;1268;61225;-61
2023/12/13 05:56:50;;;;;;;25.00;14.50;;;;;;;2.97;83.16;100362.63;104914;1260;138431;-60
2023/12/13 05:59:17;;;;;;;25.70;14.00;;;;;;;2.98;83.26;100355.88;105052;1259;75310;-61
2023/12/13 06:01:44;;;;;;;26.70;15.10;;;;;;;2.97;83.06;100354.09;104909;1260;66705;-62
2023/12/13 06:04:10;;;;;;;25.10;16.70;;;;;;;2.96;83.21;100355.10;105048;1260;139002;-62
2023/12/13 06:06:43;;;;;;;29.50;16.40;;;;;;;2.95;83.21;100361.13;104960;1260;61253;-64
2023/12/13 06:09:10;;;;;;;29.70;17.70;;;;;;;2.93;83.29;100367.09;104843;1256;138691;-61
2023/12/13 06:11:37;;;;;;;30.30;18.90;;;;;;;2.95;83.33;100367.16;104930;1261;75616;-62
2023/12/13 06:14:03;;;;;;;34.70;19.40;;;;;;;2.96;83.21;100362.91;104869;1260;66958;-61
2023/12/13 06:16:30;;;;;;;32.90;19.70;;;;;;;2.95;83.15;100360.05;104569;1263;139221;-62
2023/12/13 06:18:57;;;;;;;32.90;20.70;;;;;;;2.92;83.18;100358.73;104706;1260;61245;-61
2023/12/13 06:21:23;;;;;;;41.40;24.00;;;;;;;2.90;83.26;100359.02;104520;1257;139530;-61
2023/12/13 06:23:50;;;;;;;39.40;21.90;;;;;;;2.90;83.41;100356.91;104628;1261;74690;-62
2023/12/13 06:26:17;;;;;;;37.30;21.80;;;;;;;2.89;83.21;100357.90;104731;1261;66542;-61
2023/12/13 06:28:44;;;;;;;53.50;29.20;;;;;;;2.86;83.24;100356.55;104624;1261;137893;-61
2023/12/13 06:31:10;;;;;;;47.70;27.40;;;;;;;2.84;83.19;100351.21;104815;1261;61247;-59
2023/12/13 06:33:40;;;;;;;52.50;30.30;;;;;;;2.81;83.23;100351.06;104586;1257;137669;-61
2023/12/13 06:36:07;;;;;;;54.70;31.50;;;;;;;2.77;83.22;100349.34;104503;1261;73950;-60
2023/12/13 06:38:33;;;;;;;48.00;29.10;;;;;;;2.76;83.16;100346.85;108757;1260;138813;-61
2023/12/13 06:41:00;;;;;;;54.50;31.70;;;;;;;2.74;83.28;100348.30;105095;1260;71602;-62
2023/12/13 06:43:27;;;;;;;62.60;32.00;;;;;;;2.71;83.26;100349.72;104709;1257;61311;-62
2023/12/13 06:45:54;;;;;;;55.30;31.00;;;;;;;2.72;83.15;100350.45;104734;1260;138844;-62
2023/12/13 06:48:21;;;;;;;54.60;32.10;;;;;;;2.70;83.20;100348.12;104821;1260;73921;-60
2023/12/13 06:50:48;;;;;;;54.20;30.20;;;;;;;2.68;83.20;100345.27;104708;1264;138915;-60
2023/12/13 06:53:15;;;;;;;55.50;32.30;;;;;;;2.69;83.25;100341.64;104728;1260;72759;-61
2023/12/13 06:55:41;;;;;;;45.80;29.20;;;;;;;2.70;83.32;100345.86;104928;1257;61247;-60
2023/12/13 06:58:08;;;;;;;49.00;29.80;;;;;;;2.72;83.33;100345.27;104875;1268;139093;-61
2023/12/13 07:00:34;;;;;;;53.00;29.90;;;;;;;2.74;83.26;100341.90;104790;1257;73080;-61
2023/12/13 07:03:01;;;;;;;57.00;30.60;;;;;;;2.76;83.26;100339.58;104676;1260;139641;-60
2023/12/13 07:05:28;;;;;;;48.40;26.60;;;;;;;2.77;83.40;100345.87;108991;1257;72783;-61
2023/12/13 07:07:55;;;;;;;126.30;68.70;;;;;;;2.77;83.32;100349.48;108990;1256;58965;-62
2023/12/13 07:10:22;;;;;;;53.50;30.10;;;;;;;2.76;83.22;100348.94;108999;1257;138708;-61
2023/12/13 07:12:48;;;;;;;37.10;22.80;;;;;;;2.75;83.05;100348.02;109071;1256;72960;-61
2023/12/13 07:15:15;;;;;;;40.70;22.30;;;;;;;2.76;83.15;100345.95;108902;1257;138748;-61
2023/12/13 07:17:42;;;;;;;49.50;28.90;;;;;;;2.79;83.21;100345.60;109046;1256;73022;-60
2023/12/13 07:20:10;;;;;;;42.10;26.70;;;;;;;2.83;83.17;100342.31;109070;1255;59137;-60
2023/12/13 07:22:37;;;;;;;40.60;24.50;;;;;;;2.84;83.08;100339.95;108875;1254;137670;-60
2023/12/13 07:25:06;;;;;;;43.10;25.80;;;;;;;2.83;83.02;100335.60;109112;1255;75100;-61
2023/12/13 07:27:33;;;;;;;44.80;24.30;;;;;;;2.82;82.96;100334.17;108985;1257;138988;-61
2023/12/13 07:30:00;;;;;;;41.20;23.20;;;;;;;2.85;83.06;100338.80;105780;1260;74010;-61
2023/12/13 07:32:27;;;;;;;42.10;23.50;;;;;;;2.87;82.98;100340.65;109033;1254;59110;-61
2023/12/13 07:34:54;;;;;;;44.80;22.50;;;;;;;2.90;83.05;100343.21;109034;1257;138337;-62
2023/12/13 07:37:21;;;;;;;51.60;24.50;;;;;;;2.92;82.99;100341.58;109124;1257;75066;-62
2023/12/13 07:39:47;;;;;;;44.30;24.30;;;;;;;2.93;83.06;100339.55;108243;1257;138946;-61
2023/12/13 07:42:14;;;;;;;44.60;24.20;;;;;;;2.97;83.09;100344.20;105001;1260;71698;-60
2023/12/13 07:44:42;;;;;;;48.30;26.40;;;;;;;3.02;83.15;100347.76;104966;1256;138546;-61
2023/12/13 07:47:08;;;;;;;58.60;29.50;;;;;;;3.06;83.16;100352.98;104936;1259;61237;-61
2023/12/13 07:49:36;;;;;;;51.80;28.10;;;;;;;3.10;83.09;100354.05;104880;1260;74921;-61
2023/12/13 07:52:05;;;;;;;50.30;27.80;;;;;;;3.13;83.20;100350.36;104871;1257;138870;-60
2023/12/13 07:54:33;;;;;;;47.40;26.90;;;;;;;3.18;83.22;100350.27;104982;1260;73958;-60
2023/12/13 07:56:59;;;;;;;54.60;28.30;;;;;;;3.21;83.17;100350.77;105005;1258;138870;-61
2023/12/13 07:59:26;;;;;;;50.10;27.60;;;;;;;3.23;83.15;100342.03;104890;1258;61271;-60
2023/12/13 08:01:53;;;;;;;49.40;27.50;;;;;;;3.27;83.06;100339.25;104997;1260;75034;-61
2023/12/13 08:04:20;;;;;;;48.70;27.00;;;;;;;3.27;83.08;100338.58;104819;1260;138091;-66
2023/12/13 08:06:46;;;;;;;51.00;28.10;;;;;;;3.29;83.00;100341.79;104937;1259;73137;-61
2023/12/13 08:09:13;;;;;;;50.90;28.60;;;;;;;3.31;82.99;100340.14;104906;1264;139310;-60
2023/12/13 08:11:40;;;;;;;45.80;26.40;;;;;;;3.32;83.00;100338.64;104864;1261;61522;-61
2023/12/13 08:14:06;;;;;;;46.50;24.00;;;;;;;3.29;82.77;100335.91;104859;1260;74981;-64
2023/12/13 08:16:35;;;;;;;43.00;26.00;;;;;;;3.27;82.82;100334.06;104981;1259;138308;-63
2023/12/13 08:19:02;;;;;;;44.40;25.60;;;;;;;3.28;82.89;100338.27;105043;1258;73207;-66
2023/12/13 08:21:29;;;;;;;45.70;26.60;;;;;;;3.29;82.91;100335.56;104838;1257;138319;-66
2023/12/13 08:23:56;;;;;;;41.60;25.00;;;;;;;3.30;82.84;100340.29;106208;1257;61807;-65
2023/12/13 08:26:25;;;;;;;51.90;28.00;;;;;;;3.31;82.91;100339.98;105018;1257;75684;-65
2023/12/13 08:28:52;;;;;;;46.00;26.40;;;;;;;3.36;82.81;100339.68;109014;1254;138753;-66
2023/12/13 08:31:19;;;;;;;50.40;27.20;;;;;;;3.38;82.79;100336.29;109088;1257;72472;-61
2023/12/13 08:33:45;;;;;;;45.50;26.70;;;;;;;3.42;82.92;100341.36;108995;1256;138751;-62
2023/12/13 08:36:12;;;;;;;44.10;25.30;;;;;;;3.47;82.75;100341.25;109026;1256;59448;-61
2023/12/13 08:38:39;;;;;;;34.50;19.60;;;;;;;3.51;82.72;100340.58;108957;1257;138906;-62
2023/12/13 08:41:07;;;;;;;39.20;21.70;;;;;;;3.53;82.54;100336.67;109044;1256;64392;-61
2023/12/13 08:43:33;;;;;;;34.00;21.60;;;;;;;3.54;82.34;100337.04;109041;1257;71467;-61
2023/12/13 08:46:01;;;;;;;35.30;21.30;;;;;;;3.55;82.25;100338.81;108987;1257;137844;-61
2023/12/13 08:48:28;;;;;;;38.90;21.10;;;;;;;3.59;82.30;100344.21;109107;1254;59459;-61
2023/12/13 08:50:55;;;;;;;39.10;21.70;;;;;;;3.64;82.53;100345.70;108958;1255;137959;-62
2023/12/13 08:53:21;;;;;;;33.20;21.40;;;;;;;3.71;82.51;100347.39;109023;1256;67372;-61
2023/12/13 08:55:48;;;;;;;32.20;20.70;;;;;;;3.78;82.40;100349.24;107778;1257;71701;-62
2023/12/13 08:58:15;;;;;;;35.00;21.10;;;;;;;3.83;82.34;100349.50;104799;1259;138902;-61
2023/12/13 09:00:42;;;;;;;34.40;21.70;;;;;;;3.83;82.24;100348.30;104902;1256;61242;-61
2023/12/13 09:03:08;;;;;;;33.00;20.50;;;;;;;3.88;82.20;100347.64;104862;1260;138925;-61
2023/12/13 09:05:37;;;;;;;34.00;19.70;;;;;;;3.92;82.34;100349.55;105103;1258;67228;-61
2023/12/13 09:08:04;;;;;;;34.40;20.10;;;;;;;3.97;82.30;100350.65;109120;1255;73752;-62
2023/12/13 09:10:34;;;;;;;34.00;20.60;;;;;;;4.01;82.21;100350.11;108972;1258;138548;-61
2023/12/13 09:13:02;;;;;;;35.60;20.50;;;;;;;4.05;82.17;100352.59;109091;1257;60093;-62
2023/12/13 09:15:29;;;;;;;33.50;20.60;;;;;;;4.10;82.18;100356.63;108972;1255;138423;-61
2023/12/13 09:17:56;;;;;;;36.00;20.70;;;;;;;4.16;82.03;100356.33;109057;1256;66335;-62
2023/12/13 09:20:23;;;;;;;33.60;21.40;;;;;;;4.17;81.97;100360.40;109085;1255;71095;-61
2023/12/13 09:22:49;;;;;;;39.30;22.30;;;;;;;4.18;81.91;100356.44;106682;1256;137751;-61
2023/12/13 09:25:16;;;;;;;35.10;20.70;;;;;;;4.21;81.86;100355.34;105026;1256;61296;-61
2023/12/13 09:27:43;;;;;;;35.80;21.80;;;;;;;4.23;81.83;100357.55;104878;1260;138536;-61
2023/12/13 09:30:11;;;;;;;34.40;20.20;;;;;;;4.22;81.52;100360.77;104915;1258;66757;-61
2023/12/13 09:32:39;;;;;;;40.50;21.80;;;;;;;4.22;81.62;100360.23;108847;1254;139297;-61
2023/12/13 09:35:06;;;;;;;31.60;20.10;;;;;;;4.21;81.59;100361.46;108994;1254;59079;-61
2023/12/13 09:37:32;;;;;;;33.10;21.00;;;;;;;4.24;81.77;100360.02;108955;1256;60023;-62
2023/12/13 09:39:59;;;;;;;34.80;20.80;;;;;;;4.27;81.58;100359.64;109025;1256;138716;-66
2023/12/13 09:42:26;;;;;;;31.30;19.30;;;;;;;4.29;81.53;100357.81;109094;1256;67158;-66
2023/12/13 09:44:52;;;;;;;31.20;19.30;;;;;;;4.30;81.38;100359.56;108919;1257;138698;-66
2023/12/13 09:47:20;;;;;;;31.90;18.50;;;;;;;4.32;81.36;100358.45;109082;1256;59856;-62
2023/12/13 09:49:48;;;;;;;29.80;18.60;;;;;;;4.35;81.21;100359.08;109006;1254;61866;-62
2023/12/13 09:52:17;;;;;;;31.40;18.80;;;;;;;4.40;81.27;100358.61;108918;1257;138255;-66
2023/12/13 09:54:45;;;;;;;30.40;19.10;;;;;;;4.46;81.23;100352.13;109072;1256;66450;-66
2023/12/13 09:57:12;;;;;;;30.80;18.80;;;;;;;4.53;81.10;100350.49;108872;1255;138137;-67
2023/12/13 09:59:39;;;;;;;27.90;18.70;;;;;;;4.54;80.86;100350.34;108997;1256;59988;-66
2023/12/13 10:02:13;;;;;;;27.80;18.40;;;;;;;4.57;80.83;100343.38;109159;1256;61526;-65
2023/12/13 10:04:40;;;;;;;26.70;17.40;;;;;;;4.63;80.74;100339.09;108920;1256;137634;-65
2023/12/13 10:07:07;;;;;;;26.00;16.40;;;;;;;4.64;80.44;100338.78;109078;1255;66375;-66
2023/12/13 10:09:34;;;;;;;28.90;18.00;;;;;;;4.64;80.35;100341.06;108847;1257;138788;-60
2023/12/13 10:12:01;;;;;;;28.50;17.10;;;;;;;4.64;80.33;100340.20;108949;1256;59241;-61
2023/12/13 10:14:29;;;;;;;29.60;17.50;;;;;;;4.65;80.11;100338.34;108923;1257;59447;-61
2023/12/13 10:16:56;;;;;;;27.20;16.40;;;;;;;4.66;80.08;100335.08;108912;1256;138331;-67
2023/12/13 10:19:23;;;;;;;23.80;16.80;;;;;;;4.69;80.05;100328.58;108993;1256;66241;-66
2023/12/13 10:21:49;;;;;;;25.20;17.00;;;;;;;4.73;79.94;100328.39;108913;1256;137999;-66
2023/12/13 10:24:16;;;;;;;28.10;18.90;;;;;;;4.76;80.02;100328.16;109084;1256;59056;-66
2023/12/13 10:26:43;;;;;;;28.20;18.40;;;;;;;4.82;79.96;100327.35;108978;1256;138350;-65
2023/12/13 10:29:10;;;;;;;32.30;20.40;;;;;;;4.85;79.61;100325.94;109110;1255;74550;-66
2023/12/13 10:31:37;;;;;;;35.00;19.60;;;;;;;4.86;79.64;100323.37;109190;1254;66290;-66
2023/12/13 10:34:03;;;;;;;30.00;18.30;;;;;;;4.87;79.39;100326.35;108987;1255;137908;-66
2023/12/13 10:36:30;;;;;;;37.50;19.00;;;;;;;4.83;79.22;100328.64;109064;1255;59257;-66
2023/12/13 10:38:57;;;;;;;33.40;19.20;;;;;;;4.82;79.08;100326.48;109005;1256;138530;-66
2023/12/13 10:41:27;;;;;;;32.20;18.50;;;;;;;4.79;79.07;100324.13;108894;1256;179498;-66
2023/12/13 10:43:55;;;;;;;30.80;18.90;;;;;;;4.76;78.98;100326.79;109026;1255;66596;-66
2023/12/13 10:46:22;;;;;;;28.50;16.10;;;;;;;4.75;78.98;100325.70;108837;1257;138558;-66
2023/12/13 10:48:49;;;;;;;26.70;16.30;;;;;;;4.75;78.84;100326.56;108959;1256;58887;-66
2023/12/13 10:51:16;;;;;;;25.80;16.00;;;;;;;4.75;78.69;100321.51;108925;1254;139651;-66
2023/12/13 10:53:43;;;;;;;28.00;16.00;;;;;;;4.76;78.66;100321.20;109212;1254;74665;-62
2023/12/13 10:56:09;;;;;;;28.00;15.90;;;;;;;4.73;78.57;100320.77;108987;1256;66150;-62
2023/12/13 10:58:36;;;;;;;24.60;15.50;;;;;;;4.78;78.56;100325.63;108884;1256;138146;-66
2023/12/13 11:01:03;;;;;;;26.00;16.10;;;;;;;4.83;78.62;100327.95;109039;1256;59202;-67
2023/12/13 11:03:52;;;;;;;29.60;19.10;;;;;;;4.84;78.66;100322.39;108916;1255;137854;-62
2023/12/13 11:06:20;;;;;;;37.60;22.80;;;;;;;4.93;78.56;100326.75;108177;1260;75121;-66